sensor_id;sensor_type;location;lat;lon;timestamp;P1;durP1;ratioP1;P2;durP2;ratioP2
25549;SDS011;13444;50.562;7.262;2023-02-28T00:01:08;4.27;;;3.07;;
25549;SDS011;13444;50.562;7.262;2023-02-28T00:03:34;7.13;;;3.17;;
25549;SDS011;13444;50.562;7.262;2023-02-28T00:06:01;7.57;;;3.90;;
25549;SDS011;13444;50.562;7.262;2023-02-28T00:08:30;6.50;;;3.13;;
25549;SDS011;13444;50.562;7.262;2023-02-28T00:10:59;4.27;;;2.43;;
25549;SDS011;13444;50.562;7.262;2023-02-28T00:13:27;4.47;;;2.00;;
25549;SDS011;13444;50.562;7.262;2023-02-28T00:16:02;3.23;;;1.93;;
25549;SDS011;13444;50.562;7.262;2023-02-28T00:18:30;6.13;;;2.67;;
25549;SDS011;13444;50.562;7.262;2023-02-28T00:20:56;5.33;;;2.47;;
25549;SDS011;13444;50.562;7.262;2023-02-28T00:23:22;3.23;;;2.00;;
25549;SDS011;13444;50.562;7.262;2023-02-28T00:25:48;4.63;;;1.80;;
25549;SDS011;13444;50.562;7.262;2023-02-28T00:28:14;3.67;;;2.40;;
25549;SDS011;13444;50.562;7.262;2023-02-28T00:30:40;5.73;;;2.20;;
25549;SDS011;13444;50.562;7.262;2023-02-28T00:33:06;4.40;;;1.97;;
25549;SDS011;13444;50.562;7.262;2023-02-28T00:35:32;5.93;;;2.30;;
25549;SDS011;13444;50.562;7.262;2023-02-28T00:37:57;5.60;;;2.07;;
25549;SDS011;13444;50.562;7.262;2023-02-28T00:40:23;3.10;;;1.90;;
25549;SDS011;13444;50.562;7.262;2023-02-28T00:42:49;2.53;;;1.87;;
25549;SDS011;13444;50.562;7.262;2023-02-28T00:45:14;2.27;;;1.73;;
25549;SDS011;13444;50.562;7.262;2023-02-28T00:47:40;5.00;;;2.33;;
25549;SDS011;13444;50.562;7.262;2023-02-28T00:50:05;6.10;;;2.50;;
25549;SDS011;13444;50.562;7.262;2023-02-28T00:52:31;3.63;;;2.20;;
25549;SDS011;13444;50.562;7.262;2023-02-28T00:54:57;5.10;;;1.90;;
25549;SDS011;13444;50.562;7.262;2023-02-28T00:57:22;7.70;;;2.03;;
25549;SDS011;13444;50.562;7.262;2023-02-28T00:59:48;4.00;;;2.30;;
25549;SDS011;13444;50.562;7.262;2023-02-28T01:02:14;3.40;;;2.40;;
25549;SDS011;13444;50.562;7.262;2023-02-28T01:04:39;4.73;;;2.00;;
25549;SDS011;13444;50.562;7.262;2023-02-28T01:07:05;5.07;;;2.50;;
25549;SDS011;13444;50.562;7.262;2023-02-28T01:09:31;3.30;;;2.23;;
25549;SDS011;13444;50.562;7.262;2023-02-28T01:11:56;4.60;;;2.40;;
25549;SDS011;13444;50.562;7.262;2023-02-28T01:14:22;4.97;;;2.27;;
25549;SDS011;13444;50.562;7.262;2023-02-28T01:16:47;3.97;;;1.87;;
25549;SDS011;13444;50.562;7.262;2023-02-28T01:19:13;4.73;;;2.40;;
25549;SDS011;13444;50.562;7.262;2023-02-28T01:21:38;4.03;;;2.13;;
25549;SDS011;13444;50.562;7.262;2023-02-28T01:24:04;3.20;;;1.90;;
25549;SDS011;13444;50.562;7.262;2023-02-28T01:26:30;4.00;;;2.30;;
25549;SDS011;13444;50.562;7.262;2023-02-28T01:28:56;5.03;;;2.20;;
25549;SDS011;13444;50.562;7.262;2023-02-28T01:31:22;3.67;;;2.37;;
25549;SDS011;13444;50.562;7.262;2023-02-28T01:33:48;4.03;;;2.17;;
25549;SDS011;13444;50.562;7.262;2023-02-28T01:36:15;4.83;;;2.50;;
25549;SDS011;13444;50.562;7.262;2023-02-28T01:38:43;4.43;;;2.03;;
25549;SDS011;13444;50.562;7.262;2023-02-28T01:41:09;4.27;;;2.43;;
25549;SDS011;13444;50.562;7.262;2023-02-28T01:46:07;2.90;;;2.30;;
25549;SDS011;13444;50.562;7.262;2023-02-28T01:48:34;5.67;;;2.00;;
25549;SDS011;13444;50.562;7.262;2023-02-28T01:51:06;2.87;;;2.17;;
25549;SDS011;13444;50.562;7.262;2023-02-28T01:53:37;7.87;;;3.00;;
25549;SDS011;13444;50.562;7.262;2023-02-28T01:56:09;2.43;;;1.60;;
25549;SDS011;13444;50.562;7.262;2023-02-28T01:58:36;4.47;;;2.13;;
25549;SDS011;13444;50.562;7.262;2023-02-28T02:01:03;3.77;;;2.10;;
25549;SDS011;13444;50.562;7.262;2023-02-28T02:03:29;3.47;;;2.43;;
25549;SDS011;13444;50.562;7.262;2023-02-28T02:06:00;5.27;;;2.37;;
25549;SDS011;13444;50.562;7.262;2023-02-28T02:08:28;5.23;;;2.47;;
25549;SDS011;13444;50.562;7.262;2023-02-28T02:10:58;6.20;;;2.20;;
25549;SDS011;13444;50.562;7.262;2023-02-28T02:27:46;6.67;;;2.10;;
25549;SDS011;13444;50.562;7.262;2023-02-28T02:33:25;4.43;;;2.00;;
25549;SDS011;13444;50.562;7.262;2023-02-28T02:36:17;4.33;;;2.20;;
25549;SDS011;13444;50.562;7.262;2023-02-28T02:38:50;4.83;;;2.40;;
25549;SDS011;13444;50.562;7.262;2023-02-28T02:41:28;2.80;;;1.83;;
25549;SDS011;13444;50.562;7.262;2023-02-28T02:44:23;5.73;;;2.60;;
25549;SDS011;13444;50.562;7.262;2023-02-28T02:46:58;5.43;;;2.40;;
25549;SDS011;13444;50.562;7.262;2023-02-28T02:49:34;4.73;;;2.23;;
25549;SDS011;13444;50.562;7.262;2023-02-28T02:52:03;3.77;;;2.00;;
25549;SDS011;13444;50.562;7.262;2023-02-28T02:54:33;4.53;;;2.13;;
25549;SDS011;13444;50.562;7.262;2023-02-28T02:57:07;2.97;;;1.90;;
25549;SDS011;13444;50.562;7.262;2023-02-28T02:59:36;5.53;;;2.17;;
25549;SDS011;13444;50.562;7.262;2023-02-28T03:02:05;4.27;;;2.10;;
25549;SDS011;13444;50.562;7.262;2023-02-28T03:04:34;4.23;;;2.20;;
25549;SDS011;13444;50.562;7.262;2023-02-28T03:07:07;5.23;;;2.17;;
25549;SDS011;13444;50.562;7.262;2023-02-28T03:09:33;5.77;;;2.30;;
25549;SDS011;13444;50.562;7.262;2023-02-28T03:12:00;3.43;;;2.00;;
25549;SDS011;13444;50.562;7.262;2023-02-28T03:14:40;3.07;;;2.07;;
25549;SDS011;13444;50.562;7.262;2023-02-28T03:17:42;4.40;;;2.50;;
25549;SDS011;13444;50.562;7.262;2023-02-28T03:20:38;3.63;;;2.13;;
25549;SDS011;13444;50.562;7.262;2023-02-28T03:23:22;3.60;;;2.17;;
25549;SDS011;13444;50.562;7.262;2023-02-28T03:26:04;3.33;;;2.13;;
25549;SDS011;13444;50.562;7.262;2023-02-28T03:33:50;3.20;;;2.03;;
25549;SDS011;13444;50.562;7.262;2023-02-28T03:36:21;6.53;;;2.33;;
25549;SDS011;13444;50.562;7.262;2023-02-28T03:38:53;3.57;;;2.10;;
25549;SDS011;13444;50.562;7.262;2023-02-28T03:44:02;2.80;;;2.00;;
25549;SDS011;13444;50.562;7.262;2023-02-28T03:46:32;5.07;;;2.20;;
25549;SDS011;13444;50.562;7.262;2023-02-28T03:49:15;4.13;;;2.00;;
25549;SDS011;13444;50.562;7.262;2023-02-28T03:51:45;3.70;;;2.20;;
25549;SDS011;13444;50.562;7.262;2023-02-28T03:54:12;6.27;;;2.47;;
25549;SDS011;13444;50.562;7.262;2023-02-28T03:56:45;4.97;;;2.33;;
25549;SDS011;13444;50.562;7.262;2023-02-28T03:59:28;4.43;;;2.13;;
25549;SDS011;13444;50.562;7.262;2023-02-28T04:01:59;4.53;;;2.10;;
25549;SDS011;13444;50.562;7.262;2023-02-28T04:04:25;3.63;;;2.10;;
25549;SDS011;13444;50.562;7.262;2023-02-28T04:06:51;4.30;;;2.03;;
25549;SDS011;13444;50.562;7.262;2023-02-28T04:09:17;4.63;;;2.67;;
25549;SDS011;13444;50.562;7.262;2023-02-28T04:11:49;3.70;;;2.47;;
25549;SDS011;13444;50.562;7.262;2023-02-28T04:14:20;4.87;;;2.37;;
25549;SDS011;13444;50.562;7.262;2023-02-28T04:16:46;5.80;;;2.57;;
25549;SDS011;13444;50.562;7.262;2023-02-28T04:19:12;3.20;;;2.43;;
25549;SDS011;13444;50.562;7.262;2023-02-28T04:21:40;3.43;;;2.30;;
25549;SDS011;13444;50.562;7.262;2023-02-28T04:24:08;4.37;;;2.20;;
25549;SDS011;13444;50.562;7.262;2023-02-28T04:26:39;4.13;;;2.33;;
25549;SDS011;13444;50.562;7.262;2023-02-28T04:29:06;3.90;;;2.53;;
25549;SDS011;13444;50.562;7.262;2023-02-28T04:31:32;3.87;;;2.40;;
25549;SDS011;13444;50.562;7.262;2023-02-28T04:33:58;6.23;;;2.40;;
25549;SDS011;13444;50.562;7.262;2023-02-28T04:36:24;4.70;;;2.47;;
25549;SDS011;13444;50.562;7.262;2023-02-28T04:38:50;4.83;;;2.40;;
25549;SDS011;13444;50.562;7.262;2023-02-28T04:41:16;3.53;;;2.00;;
25549;SDS011;13444;50.562;7.262;2023-02-28T04:43:42;5.20;;;2.37;;
25549;SDS011;13444;50.562;7.262;2023-02-28T04:46:10;5.87;;;2.33;;
25549;SDS011;13444;50.562;7.262;2023-02-28T04:48:37;3.10;;;2.00;;
25549;SDS011;13444;50.562;7.262;2023-02-28T04:51:04;5.70;;;2.10;;
25549;SDS011;13444;50.562;7.262;2023-02-28T04:53:31;6.37;;;2.70;;
25549;SDS011;13444;50.562;7.262;2023-02-28T04:55:58;4.23;;;2.47;;
25549;SDS011;13444;50.562;7.262;2023-02-28T04:58:24;4.90;;;2.90;;
25549;SDS011;13444;50.562;7.262;2023-02-28T05:00:50;5.23;;;2.60;;
25549;SDS011;13444;50.562;7.262;2023-02-28T05:03:16;4.83;;;2.57;;
25549;SDS011;13444;50.562;7.262;2023-02-28T05:05:42;5.40;;;2.73;;
25549;SDS011;13444;50.562;7.262;2023-02-28T05:08:08;5.07;;;2.47;;
25549;SDS011;13444;50.562;7.262;2023-02-28T05:10:34;4.77;;;2.47;;
25549;SDS011;13444;50.562;7.262;2023-02-28T05:13:00;4.47;;;2.43;;
25549;SDS011;13444;50.562;7.262;2023-02-28T05:15:26;6.07;;;2.70;;
25549;SDS011;13444;50.562;7.262;2023-02-28T05:17:52;5.10;;;2.40;;
25549;SDS011;13444;50.562;7.262;2023-02-28T05:20:17;3.97;;;2.47;;
25549;SDS011;13444;50.562;7.262;2023-02-28T05:22:43;3.57;;;2.50;;
25549;SDS011;13444;50.562;7.262;2023-02-28T05:25:10;4.80;;;2.90;;
25549;SDS011;13444;50.562;7.262;2023-02-28T05:27:41;3.13;;;2.57;;
25549;SDS011;13444;50.562;7.262;2023-02-28T05:30:07;4.50;;;2.70;;
25549;SDS011;13444;50.562;7.262;2023-02-28T05:32:35;3.33;;;2.73;;
25549;SDS011;13444;50.562;7.262;2023-02-28T05:35:02;5.53;;;2.73;;
25549;SDS011;13444;50.562;7.262;2023-02-28T05:37:27;4.63;;;2.40;;
25549;SDS011;13444;50.562;7.262;2023-02-28T05:39:53;3.40;;;2.50;;
25549;SDS011;13444;50.562;7.262;2023-02-28T05:42:18;4.23;;;2.53;;
25549;SDS011;13444;50.562;7.262;2023-02-28T05:44:44;4.43;;;2.80;;
25549;SDS011;13444;50.562;7.262;2023-02-28T05:47:09;3.67;;;2.50;;
25549;SDS011;13444;50.562;7.262;2023-02-28T05:49:35;4.10;;;2.80;;
25549;SDS011;13444;50.562;7.262;2023-02-28T05:52:00;4.73;;;2.60;;
25549;SDS011;13444;50.562;7.262;2023-02-28T05:54:26;3.80;;;2.57;;
25549;SDS011;13444;50.562;7.262;2023-02-28T05:56:51;3.80;;;2.80;;
25549;SDS011;13444;50.562;7.262;2023-02-28T05:59:17;4.00;;;2.67;;
25549;SDS011;13444;50.562;7.262;2023-02-28T06:01:44;3.60;;;2.30;;
25549;SDS011;13444;50.562;7.262;2023-02-28T06:04:15;5.83;;;2.67;;
25549;SDS011;13444;50.562;7.262;2023-02-28T06:06:44;6.10;;;3.63;;
25549;SDS011;13444;50.562;7.262;2023-02-28T06:09:10;11.60;;;6.20;;
25549;SDS011;13444;50.562;7.262;2023-02-28T06:11:36;9.00;;;5.53;;
25549;SDS011;13444;50.562;7.262;2023-02-28T06:14:02;5.30;;;3.50;;
25549;SDS011;13444;50.562;7.262;2023-02-28T06:16:29;5.53;;;2.80;;
25549;SDS011;13444;50.562;7.262;2023-02-28T06:18:57;5.13;;;3.30;;
25549;SDS011;13444;50.562;7.262;2023-02-28T06:21:23;4.97;;;3.00;;
25549;SDS011;13444;50.562;7.262;2023-02-28T06:23:49;4.87;;;3.20;;
25549;SDS011;13444;50.562;7.262;2023-02-28T06:26:15;3.53;;;2.40;;
25549;SDS011;13444;50.562;7.262;2023-02-28T06:28:40;6.53;;;3.17;;
25549;SDS011;13444;50.562;7.262;2023-02-28T06:31:07;5.87;;;2.90;;
25549;SDS011;13444;50.562;7.262;2023-02-28T06:33:37;6.40;;;3.23;;
25549;SDS011;13444;50.562;7.262;2023-02-28T06:36:04;3.80;;;3.13;;
25549;SDS011;13444;50.562;7.262;2023-02-28T06:38:31;4.23;;;3.33;;
25549;SDS011;13444;50.562;7.262;2023-02-28T06:40:57;4.03;;;2.77;;
25549;SDS011;13444;50.562;7.262;2023-02-28T06:43:24;3.90;;;2.80;;
25549;SDS011;13444;50.562;7.262;2023-02-28T06:45:54;3.97;;;3.13;;
25549;SDS011;13444;50.562;7.262;2023-02-28T06:48:21;3.57;;;3.17;;
25549;SDS011;13444;50.562;7.262;2023-02-28T06:50:46;6.50;;;3.60;;
25549;SDS011;13444;50.562;7.262;2023-02-28T06:53:12;3.43;;;2.80;;
25549;SDS011;13444;50.562;7.262;2023-02-28T06:55:38;6.07;;;2.93;;
25549;SDS011;13444;50.562;7.262;2023-02-28T06:58:04;4.17;;;3.00;;
25549;SDS011;13444;50.562;7.262;2023-02-28T07:00:45;5.07;;;2.70;;
25549;SDS011;13444;50.562;7.262;2023-02-28T07:03:11;4.03;;;2.73;;
25549;SDS011;13444;50.562;7.262;2023-02-28T07:05:38;4.83;;;2.73;;
25549;SDS011;13444;50.562;7.262;2023-02-28T07:08:05;4.17;;;2.73;;
25549;SDS011;13444;50.562;7.262;2023-02-28T07:10:31;6.63;;;3.30;;
25549;SDS011;13444;50.562;7.262;2023-02-28T07:12:58;5.93;;;3.63;;
25549;SDS011;13444;50.562;7.262;2023-02-28T07:15:24;6.57;;;3.90;;
25549;SDS011;13444;50.562;7.262;2023-02-28T07:17:50;7.77;;;3.80;;
25549;SDS011;13444;50.562;7.262;2023-02-28T07:20:15;6.70;;;3.77;;
25549;SDS011;13444;50.562;7.262;2023-02-28T07:22:41;5.90;;;3.33;;
25549;SDS011;13444;50.562;7.262;2023-02-28T07:25:07;5.07;;;3.83;;
25549;SDS011;13444;50.562;7.262;2023-02-28T07:27:33;6.97;;;5.77;;
25549;SDS011;13444;50.562;7.262;2023-02-28T07:29:59;9.67;;;6.40;;
25549;SDS011;13444;50.562;7.262;2023-02-28T07:32:26;11.50;;;7.57;;
25549;SDS011;13444;50.562;7.262;2023-02-28T07:34:53;5.70;;;4.33;;
25549;SDS011;13444;50.562;7.262;2023-02-28T07:37:19;4.70;;;3.47;;
25549;SDS011;13444;50.562;7.262;2023-02-28T07:39:44;6.03;;;3.30;;
25549;SDS011;13444;50.562;7.262;2023-02-28T07:42:10;6.20;;;3.53;;
25549;SDS011;13444;50.562;7.262;2023-02-28T07:44:37;5.30;;;2.90;;
25549;SDS011;13444;50.562;7.262;2023-02-28T07:47:08;3.87;;;2.90;;
25549;SDS011;13444;50.562;7.262;2023-02-28T07:49:37;5.13;;;3.50;;
25549;SDS011;13444;50.562;7.262;2023-02-28T07:52:04;5.93;;;3.30;;
25549;SDS011;13444;50.562;7.262;2023-02-28T07:54:32;6.33;;;3.13;;
25549;SDS011;13444;50.562;7.262;2023-02-28T07:56:57;7.67;;;3.37;;
25549;SDS011;13444;50.562;7.262;2023-02-28T07:59:23;4.83;;;2.67;;
25549;SDS011;13444;50.562;7.262;2023-02-28T08:01:49;5.50;;;3.00;;
25549;SDS011;13444;50.562;7.262;2023-02-28T08:04:16;4.60;;;3.03;;
25549;SDS011;13444;50.562;7.262;2023-02-28T08:06:42;4.57;;;3.00;;
25549;SDS011;13444;50.562;7.262;2023-02-28T08:09:07;4.53;;;2.73;;
25549;SDS011;13444;50.562;7.262;2023-02-28T08:11:33;3.47;;;2.57;;
25549;SDS011;13444;50.562;7.262;2023-02-28T08:13:59;4.67;;;2.57;;
25549;SDS011;13444;50.562;7.262;2023-02-28T08:16:25;4.43;;;2.60;;
25549;SDS011;13444;50.562;7.262;2023-02-28T08:18:51;4.17;;;2.23;;
25549;SDS011;13444;50.562;7.262;2023-02-28T08:21:17;3.93;;;2.20;;
25549;SDS011;13444;50.562;7.262;2023-02-28T08:23:43;4.50;;;2.77;;
25549;SDS011;13444;50.562;7.262;2023-02-28T08:26:08;6.20;;;2.60;;
25549;SDS011;13444;50.562;7.262;2023-02-28T08:28:34;3.73;;;2.20;;
25549;SDS011;13444;50.562;7.262;2023-02-28T08:31:00;4.70;;;2.50;;
25549;SDS011;13444;50.562;7.262;2023-02-28T08:33:26;3.13;;;2.13;;
25549;SDS011;13444;50.562;7.262;2023-02-28T08:35:53;3.47;;;2.43;;
25549;SDS011;13444;50.562;7.262;2023-02-28T08:38:19;4.33;;;2.47;;
25549;SDS011;13444;50.562;7.262;2023-02-28T08:40:45;3.97;;;2.30;;
25549;SDS011;13444;50.562;7.262;2023-02-28T08:43:10;5.27;;;2.23;;
25549;SDS011;13444;50.562;7.262;2023-02-28T08:45:36;3.93;;;2.00;;
25549;SDS011;13444;50.562;7.262;2023-02-28T08:48:02;3.33;;;2.33;;
25549;SDS011;13444;50.562;7.262;2023-02-28T08:50:27;2.10;;;1.80;;
25549;SDS011;13444;50.562;7.262;2023-02-28T08:52:53;4.17;;;2.30;;
25549;SDS011;13444;50.562;7.262;2023-02-28T08:55:18;4.23;;;2.60;;
25549;SDS011;13444;50.562;7.262;2023-02-28T08:57:44;2.77;;;2.00;;
25549;SDS011;13444;50.562;7.262;2023-02-28T09:00:09;3.13;;;2.37;;
25549;SDS011;13444;50.562;7.262;2023-02-28T09:02:38;4.07;;;2.27;;
25549;SDS011;13444;50.562;7.262;2023-02-28T09:05:04;7.93;;;2.50;;
25549;SDS011;13444;50.562;7.262;2023-02-28T09:07:30;6.43;;;2.50;;
25549;SDS011;13444;50.562;7.262;2023-02-28T09:09:55;4.40;;;2.37;;
25549;SDS011;13444;50.562;7.262;2023-02-28T09:12:25;3.87;;;2.20;;
25549;SDS011;13444;50.562;7.262;2023-02-28T09:14:52;4.27;;;2.47;;
25549;SDS011;13444;50.562;7.262;2023-02-28T09:17:18;3.87;;;2.20;;
25549;SDS011;13444;50.562;7.262;2023-02-28T09:19:44;3.97;;;2.00;;
25549;SDS011;13444;50.562;7.262;2023-02-28T09:22:10;2.57;;;1.97;;
25549;SDS011;13444;50.562;7.262;2023-02-28T09:24:37;4.13;;;2.20;;
25549;SDS011;13444;50.562;7.262;2023-02-28T09:27:03;2.93;;;2.40;;
25549;SDS011;13444;50.562;7.262;2023-02-28T09:29:29;6.00;;;2.50;;
25549;SDS011;13444;50.562;7.262;2023-02-28T09:31:55;4.27;;;2.37;;
25549;SDS011;13444;50.562;7.262;2023-02-28T09:34:23;2.53;;;2.10;;
25549;SDS011;13444;50.562;7.262;2023-02-28T09:36:49;3.43;;;2.30;;
25549;SDS011;13444;50.562;7.262;2023-02-28T09:39:19;4.17;;;2.23;;
25549;SDS011;13444;50.562;7.262;2023-02-28T09:41:47;4.20;;;2.27;;
25549;SDS011;13444;50.562;7.262;2023-02-28T09:47:12;5.00;;;2.33;;
25549;SDS011;13444;50.562;7.262;2023-02-28T09:49:46;2.37;;;2.13;;
25549;SDS011;13444;50.562;7.262;2023-02-28T09:52:15;3.77;;;2.13;;
25549;SDS011;13444;50.562;7.262;2023-02-28T09:54:44;5.73;;;2.40;;
25549;SDS011;13444;50.562;7.262;2023-02-28T09:57:18;3.00;;;2.33;;
25549;SDS011;13444;50.562;7.262;2023-02-28T10:00:10;4.33;;;2.47;;
25549;SDS011;13444;50.562;7.262;2023-02-28T10:05:20;3.87;;;2.33;;
25549;SDS011;13444;50.562;7.262;2023-02-28T10:15:55;3.30;;;1.97;;
25549;SDS011;13444;50.562;7.262;2023-02-28T10:19:20;4.10;;;2.20;;
25549;SDS011;13444;50.562;7.262;2023-02-28T10:21:27;4.07;;;1.70;;
25549;SDS011;13444;50.562;7.262;2023-02-28T10:24:04;3.17;;;1.90;;
25549;SDS011;13444;50.562;7.262;2023-02-28T10:26:41;3.47;;;1.93;;
25549;SDS011;13444;50.562;7.262;2023-02-28T10:29:10;3.60;;;2.20;;
25549;SDS011;13444;50.562;7.262;2023-02-28T10:31:35;2.47;;;1.63;;
25549;SDS011;13444;50.562;7.262;2023-02-28T10:34:01;3.57;;;2.10;;
25549;SDS011;13444;50.562;7.262;2023-02-28T10:36:29;2.93;;;2.07;;
25549;SDS011;13444;50.562;7.262;2023-02-28T10:38:54;3.60;;;1.73;;
25549;SDS011;13444;50.562;7.262;2023-02-28T10:41:30;2.97;;;2.07;;
25549;SDS011;13444;50.562;7.262;2023-02-28T10:44:14;3.23;;;2.33;;
25549;SDS011;13444;50.562;7.262;2023-02-28T10:46:45;1.90;;;1.70;;
25549;SDS011;13444;50.562;7.262;2023-02-28T10:49:20;4.20;;;1.80;;
25549;SDS011;13444;50.562;7.262;2023-02-28T10:51:55;3.67;;;1.67;;
25549;SDS011;13444;50.562;7.262;2023-02-28T10:54:35;2.58;;;1.70;;
25549;SDS011;13444;50.562;7.262;2023-02-28T10:57:36;3.03;;;2.10;;
25549;SDS011;13444;50.562;7.262;2023-02-28T11:00:07;4.25;;;1.77;;
25549;SDS011;13444;50.562;7.262;2023-02-28T11:02:46;3.00;;;1.88;;
25549;SDS011;13444;50.562;7.262;2023-02-28T11:05:26;3.05;;;2.08;;
25549;SDS011;13444;50.562;7.262;2023-02-28T11:08:12;2.45;;;1.98;;
25549;SDS011;13444;50.562;7.262;2023-02-28T11:10:44;2.67;;;1.90;;
25549;SDS011;13444;50.562;7.262;2023-02-28T11:13:19;2.53;;;1.90;;
25549;SDS011;13444;50.562;7.262;2023-02-28T11:15:54;3.70;;;2.20;;
25549;SDS011;13444;50.562;7.262;2023-02-28T11:20:54;1.77;;;1.65;;
25549;SDS011;13444;50.562;7.262;2023-02-28T11:23:23;4.35;;;2.08;;
25549;SDS011;13444;50.562;7.262;2023-02-28T11:25:52;3.60;;;2.28;;
25549;SDS011;13444;50.562;7.262;2023-02-28T11:28:28;4.60;;;2.00;;
25549;SDS011;13444;50.562;7.262;2023-02-28T11:30:59;3.30;;;1.60;;
25549;SDS011;13444;50.562;7.262;2023-02-28T11:33:52;3.70;;;1.90;;
25549;SDS011;13444;50.562;7.262;2023-02-28T11:38:52;3.97;;;2.28;;
25549;SDS011;13444;50.562;7.262;2023-02-28T11:44:01;4.55;;;2.10;;
25549;SDS011;13444;50.562;7.262;2023-02-28T11:46:50;2.20;;;2.00;;
25549;SDS011;13444;50.562;7.262;2023-02-28T11:49:26;3.55;;;1.92;;
25549;SDS011;13444;50.562;7.262;2023-02-28T11:52:20;2.75;;;2.00;;
25549;SDS011;13444;50.562;7.262;2023-02-28T11:55:11;3.15;;;1.98;;
25549;SDS011;13444;50.562;7.262;2023-02-28T11:58:12;3.72;;;2.00;;
25549;SDS011;13444;50.562;7.262;2023-02-28T12:00:49;3.22;;;2.10;;
25549;SDS011;13444;50.562;7.262;2023-02-28T12:03:54;3.83;;;1.92;;
25549;SDS011;13444;50.562;7.262;2023-02-28T12:12:58;2.65;;;1.85;;
25549;SDS011;13444;50.562;7.262;2023-02-28T12:18:14;3.33;;;2.30;;
25549;SDS011;13444;50.562;7.262;2023-02-28T12:20:53;3.05;;;2.15;;
25549;SDS011;13444;50.562;7.262;2023-02-28T12:26:24;4.13;;;2.17;;
25549;SDS011;13444;50.562;7.262;2023-02-28T12:29:04;2.92;;;2.08;;
25549;SDS011;13444;50.562;7.262;2023-02-28T12:31:38;3.97;;;2.10;;
25549;SDS011;13444;50.562;7.262;2023-02-28T12:34:13;3.03;;;2.10;;
25549;SDS011;13444;50.562;7.262;2023-02-28T12:36:45;3.00;;;2.30;;
25549;SDS011;13444;50.562;7.262;2023-02-28T12:39:26;5.23;;;2.27;;
25549;SDS011;13444;50.562;7.262;2023-02-28T12:41:59;3.17;;;1.87;;
25549;SDS011;13444;50.562;7.262;2023-02-28T12:44:35;3.70;;;2.10;;
25549;SDS011;13444;50.562;7.262;2023-02-28T12:47:11;2.67;;;2.13;;
25549;SDS011;13444;50.562;7.262;2023-02-28T12:49:47;4.03;;;2.33;;
25549;SDS011;13444;50.562;7.262;2023-02-28T12:52:18;4.00;;;2.30;;
25549;SDS011;13444;50.562;7.262;2023-02-28T12:54:52;2.47;;;1.80;;
25549;SDS011;13444;50.562;7.262;2023-02-28T13:00:11;3.77;;;2.20;;
25549;SDS011;13444;50.562;7.262;2023-02-28T13:10:48;4.27;;;2.70;;
25549;SDS011;13444;50.562;7.262;2023-02-28T13:13:22;6.90;;;3.47;;
25549;SDS011;13444;50.562;7.262;2023-02-28T13:15:57;4.13;;;2.93;;
25549;SDS011;13444;50.562;7.262;2023-02-28T13:21:04;3.58;;;2.33;;
25549;SDS011;13444;50.562;7.262;2023-02-28T13:23:37;3.60;;;2.27;;
25549;SDS011;13444;50.562;7.262;2023-02-28T13:32:18;4.80;;;2.53;;
25549;SDS011;13444;50.562;7.262;2023-02-28T13:37:30;3.63;;;2.00;;
25549;SDS011;13444;50.562;7.262;2023-02-28T13:39:56;3.93;;;2.50;;
25549;SDS011;13444;50.562;7.262;2023-02-28T13:48:28;3.77;;;2.33;;
25549;SDS011;13444;50.562;7.262;2023-02-28T13:55:53;3.90;;;2.30;;
25549;SDS011;13444;50.562;7.262;2023-02-28T14:06:22;4.67;;;3.00;;
25549;SDS011;13444;50.562;7.262;2023-02-28T14:08:57;3.10;;;2.60;;
25549;SDS011;13444;50.562;7.262;2023-02-28T14:11:29;4.60;;;3.00;;
25549;SDS011;13444;50.562;7.262;2023-02-28T14:13:57;4.43;;;2.50;;
25549;SDS011;13444;50.562;7.262;2023-02-28T14:16:24;6.50;;;3.10;;
25549;SDS011;13444;50.562;7.262;2023-02-28T14:21:38;5.80;;;2.80;;
25549;SDS011;13444;50.562;7.262;2023-02-28T14:29:30;6.40;;;2.83;;
25549;SDS011;13444;50.562;7.262;2023-02-28T14:32:35;4.80;;;2.63;;
25549;SDS011;13444;50.562;7.262;2023-02-28T14:35:21;3.70;;;2.87;;
25549;SDS011;13444;50.562;7.262;2023-02-28T14:38:05;3.73;;;2.60;;
25549;SDS011;13444;50.562;7.262;2023-02-28T14:40:38;3.63;;;2.90;;
25549;SDS011;13444;50.562;7.262;2023-02-28T14:43:05;9.53;;;5.23;;
25549;SDS011;13444;50.562;7.262;2023-02-28T14:45:43;3.93;;;3.03;;
25549;SDS011;13444;50.562;7.262;2023-02-28T14:48:15;5.80;;;2.87;;
25549;SDS011;13444;50.562;7.262;2023-02-28T14:50:41;7.20;;;3.67;;
25549;SDS011;13444;50.562;7.262;2023-02-28T14:53:15;3.63;;;2.80;;
25549;SDS011;13444;50.562;7.262;2023-02-28T14:55:45;5.33;;;3.37;;
25549;SDS011;13444;50.562;7.262;2023-02-28T14:58:26;5.13;;;3.53;;
25549;SDS011;13444;50.562;7.262;2023-02-28T15:00:54;7.70;;;4.40;;
25549;SDS011;13444;50.562;7.262;2023-02-28T15:03:24;6.93;;;4.03;;
25549;SDS011;13444;50.562;7.262;2023-02-28T15:05:56;4.67;;;3.07;;
25549;SDS011;13444;50.562;7.262;2023-02-28T15:08:37;6.07;;;3.80;;
25549;SDS011;13444;50.562;7.262;2023-02-28T15:11:13;5.70;;;3.27;;
25549;SDS011;13444;50.562;7.262;2023-02-28T15:16:12;5.00;;;4.07;;
25549;SDS011;13444;50.562;7.262;2023-02-28T15:18:48;7.97;;;3.80;;
25549;SDS011;13444;50.562;7.262;2023-02-28T15:21:18;6.10;;;3.53;;
25549;SDS011;13444;50.562;7.262;2023-02-28T15:23:52;8.17;;;4.33;;
25549;SDS011;13444;50.562;7.262;2023-02-28T15:26:22;5.53;;;3.70;;
25549;SDS011;13444;50.562;7.262;2023-02-28T15:28:52;7.23;;;3.07;;
25549;SDS011;13444;50.562;7.262;2023-02-28T15:31:43;8.73;;;4.33;;
25549;SDS011;13444;50.562;7.262;2023-02-28T15:36:58;6.10;;;3.70;;
25549;SDS011;13444;50.562;7.262;2023-02-28T15:39:25;5.37;;;3.70;;
25549;SDS011;13444;50.562;7.262;2023-02-28T15:41:52;4.73;;;3.33;;
25549;SDS011;13444;50.562;7.262;2023-02-28T15:44:34;6.73;;;3.80;;
25549;SDS011;13444;50.562;7.262;2023-02-28T15:47:12;6.73;;;3.80;;
25549;SDS011;13444;50.562;7.262;2023-02-28T15:49:59;6.37;;;3.87;;
25549;SDS011;13444;50.562;7.262;2023-02-28T15:57:57;150.07;;;15.50;;
25549;SDS011;13444;50.562;7.262;2023-02-28T16:00:30;27.57;;;5.43;;
25549;SDS011;13444;50.562;7.262;2023-02-28T16:02:59;20.33;;;4.40;;
25549;SDS011;13444;50.562;7.262;2023-02-28T16:05:26;7.20;;;3.77;;
25549;SDS011;13444;50.562;7.262;2023-02-28T16:07:55;7.13;;;3.83;;
25549;SDS011;13444;50.562;7.262;2023-02-28T16:10:23;7.43;;;4.50;;
25549;SDS011;13444;50.562;7.262;2023-02-28T16:12:52;7.40;;;4.10;;
25549;SDS011;13444;50.562;7.262;2023-02-28T16:15:23;7.90;;;4.10;;
25549;SDS011;13444;50.562;7.262;2023-02-28T16:17:51;9.73;;;4.47;;
25549;SDS011;13444;50.562;7.262;2023-02-28T16:20:20;7.40;;;3.80;;
25549;SDS011;13444;50.562;7.262;2023-02-28T16:22:46;5.83;;;3.33;;
25549;SDS011;13444;50.562;7.262;2023-02-28T16:25:12;7.23;;;4.63;;
25549;SDS011;13444;50.562;7.262;2023-02-28T16:27:39;9.57;;;4.17;;
25549;SDS011;13444;50.562;7.262;2023-02-28T16:30:05;11.60;;;4.23;;
25549;SDS011;13444;50.562;7.262;2023-02-28T16:32:33;9.20;;;4.67;;
25549;SDS011;13444;50.562;7.262;2023-02-28T16:35:01;11.03;;;4.73;;
25549;SDS011;13444;50.562;7.262;2023-02-28T16:37:27;10.40;;;3.90;;
25549;SDS011;13444;50.562;7.262;2023-02-28T16:39:53;8.57;;;5.00;;
25549;SDS011;13444;50.562;7.262;2023-02-28T16:42:25;13.20;;;4.57;;
25549;SDS011;13444;50.562;7.262;2023-02-28T16:44:53;30.40;;;5.93;;
25549;SDS011;13444;50.562;7.262;2023-02-28T16:47:20;6.07;;;3.67;;
25549;SDS011;13444;50.562;7.262;2023-02-28T16:49:46;7.27;;;4.60;;
25549;SDS011;13444;50.562;7.262;2023-02-28T16:52:12;10.00;;;4.00;;
25549;SDS011;13444;50.562;7.262;2023-02-28T16:54:39;17.60;;;5.10;;
25549;SDS011;13444;50.562;7.262;2023-02-28T16:57:05;5.77;;;3.63;;
25549;SDS011;13444;50.562;7.262;2023-02-28T16:59:36;6.73;;;4.30;;
25549;SDS011;13444;50.562;7.262;2023-02-28T17:02:07;5.07;;;3.30;;
25549;SDS011;13444;50.562;7.262;2023-02-28T17:04:36;6.00;;;4.07;;
25549;SDS011;13444;50.562;7.262;2023-02-28T17:07:02;6.37;;;3.50;;